Time;durP1;ratioP1;P1;durP2;ratioP2;P2;SDS_P1;SDS_P2;PMS_P1;PMS_P2;Temp;Humidity;BMP_temperature;BMP_pressure;BME280_temperature;BME280_humidity;BME280_pressure;Samples;Min_cycle;Max_cycle;Signal;HPM_P1;HPM_P2
2021/12/08 00:02:29;;;;;;;5.95;2.45;;;22.20;47.60;;;;;;5142392;28;20061;-48
2021/12/08 00:05:03;;;;;;;5.20;2.35;;;22.20;47.60;;;;;;5145249;28;20046;-50
2021/12/08 00:07:36;;;;;;;5.65;2.33;;;22.20;47.60;;;;;;5151723;28;20425;-50
2021/12/08 00:10:29;;;;;;;6.82;3.20;;;22.20;47.60;;;;;;5147083;28;20257;-51
2021/12/08 00:13:07;;;;;;;4.57;2.33;;;22.20;47.60;;;;;;5147659;28;20050;-51
2021/12/08 00:15:46;;;;;;;8.90;2.63;;;22.20;47.60;;;;;;5141062;28;20058;-49
2021/12/08 00:18:22;;;;;;;5.97;2.30;;;22.20;47.70;;;;;;5141450;28;20049;-49
2021/12/08 00:20:59;;;;;;;10.55;2.42;;;22.20;47.70;;;;;;5154076;28;20516;-51
2021/12/08 00:23:32;;;;;;;8.38;2.65;;;22.20;47.70;;;;;;5151882;28;20046;-52
2021/12/08 00:26:05;;;;;;;5.75;2.35;;;22.20;47.70;;;;;;5144937;28;20548;-52
2021/12/08 00:28:38;;;;;;;5.38;2.45;;;22.20;47.60;;;;;;5149228;28;20076;-50
2021/12/08 00:31:10;;;;;;;5.53;2.55;;;22.20;47.60;;;;;;5141663;28;20614;-49
2021/12/08 00:33:43;;;;;;;5.45;2.25;;;22.20;47.60;;;;;;5149518;28;20050;-49
2021/12/08 00:36:18;;;;;;;5.45;2.92;;;22.20;47.50;;;;;;5130377;28;20053;-52
2021/12/08 00:38:50;;;;;;;4.85;2.20;;;22.20;47.50;;;;;;5154335;28;20607;-50
2021/12/08 00:41:22;;;;;;;3.30;2.10;;;22.20;47.50;;;;;;5150681;28;20053;-50
2021/12/08 00:43:55;;;;;;;5.95;2.20;;;22.10;47.40;;;;;;5152217;28;20555;-49
2021/12/08 00:46:27;;;;;;;4.93;2.17;;;22.20;47.40;;;;;;5138508;28;20501;-53
2021/12/08 00:49:00;;;;;;;3.43;2.17;;;22.20;47.40;;;;;;5152294;28;20057;-51
2021/12/08 00:51:33;;;;;;;3.85;2.55;;;22.20;47.40;;;;;;5149141;28;20589;-51
2021/12/08 00:54:05;;;;;;;3.78;1.95;;;22.10;47.30;;;;;;5123856;28;20868;-51
2021/12/08 00:56:38;;;;;;;4.50;2.38;;;22.10;47.30;;;;;;5149028;28;21464;-48
2021/12/08 00:59:10;;;;;;;3.45;2.28;;;22.10;47.30;;;;;;5143690;28;20053;-50
2021/12/08 01:01:43;;;;;;;5.13;2.10;;;22.10;47.30;;;;;;5141618;28;20045;-51
2021/12/08 01:04:16;;;;;;;5.28;2.58;;;22.10;47.30;;;;;;5135028;28;20046;-50
2021/12/08 01:06:48;;;;;;;3.10;2.17;;;22.10;47.30;;;;;;5132447;28;20536;-49
2021/12/08 01:09:21;;;;;;;4.13;2.35;;;22.10;47.40;;;;;;5124630;28;20184;-53
2021/12/08 01:11:55;;;;;;;5.40;2.20;;;22.10;47.30;;;;;;5123327;28;20061;-51
2021/12/08 01:14:30;;;;;;;4.43;2.40;;;22.10;47.30;;;;;;5133871;28;20050;-52
2021/12/08 01:17:05;;;;;;;3.63;2.28;;;22.10;47.30;;;;;;5136639;28;20413;-51
2021/12/08 01:19:44;;;;;;;4.93;2.10;;;22.10;47.40;;;;;;5134034;28;20547;-49
2021/12/08 01:22:22;;;;;;;3.75;2.22;;;22.10;47.30;;;;;;5146479;28;20038;-48
2021/12/08 01:24:58;;;;;;;5.32;2.20;;;22.10;47.20;;;;;;5151576;28;20053;-51
2021/12/08 01:27:32;;;;;;;4.57;2.58;;;22.10;47.20;;;;;;5147861;28;20042;-50
2021/12/08 01:30:07;;;;;;;3.55;2.38;;;22.10;47.20;;;;;;5153756;28;21069;-50
2021/12/08 01:32:39;;;;;;;4.32;2.10;;;22.10;47.20;;;;;;5150553;28;20121;-52
2021/12/08 01:35:12;;;;;;;3.30;2.38;;;22.10;47.30;;;;;;5157578;28;20513;-51
2021/12/08 01:37:44;;;;;;;2.55;1.95;;;22.10;47.20;;;;;;5156140;28;20073;-51
2021/12/08 01:40:17;;;;;;;4.75;2.28;;;22.10;47.20;;;;;;5153261;28;20050;-50
2021/12/08 01:42:53;;;;;;;4.03;2.05;;;22.10;47.20;;;;;;5151847;28;20046;-50
2021/12/08 01:48:20;;;;;;;;;;;22.10;47.30;;;;;;5139592;28;20496;-50
2021/12/08 01:50:55;;;;;;;3.30;2.00;;;22.00;47.30;;;;;;5150886;28;20513;-56
2021/12/08 01:53:29;;;;;;;5.20;1.90;;;22.00;47.30;;;;;;5158983;28;20064;-48
2021/12/08 01:56:01;;;;;;;4.97;2.20;;;22.00;47.40;;;;;;5155324;28;20045;-51
2021/12/08 01:58:34;;;;;;;6.05;2.50;;;22.00;47.30;;;;;;5158164;28;20046;-51
2021/12/08 02:01:13;;;;;;;4.97;1.90;;;22.00;47.20;;;;;;5155301;28;20045;-49
2021/12/08 02:03:45;;;;;;;3.15;1.90;;;22.00;47.20;;;;;;5155345;28;20320;-53
2021/12/08 02:06:20;;;;;;;4.13;2.22;;;22.00;47.20;;;;;;5162262;28;20054;-48
2021/12/08 02:08:52;;;;;;;3.40;2.00;;;22.00;47.20;;;;;;5153954;28;20427;-51
2021/12/08 02:11:25;;;;;;;4.97;1.83;;;22.00;47.50;;;;;;5156887;28;20038;-52
2021/12/08 02:14:01;;;;;;;3.17;2.03;;;22.00;47.50;;;;;;5157688;28;20052;-49
2021/12/08 02:16:34;;;;;;;4.07;2.55;;;22.00;47.40;;;;;;5159438;28;20053;-52
2021/12/08 02:19:07;;;;;;;3.05;1.92;;;22.10;47.50;;;;;;5155158;28;20058;-49
2021/12/08 02:21:42;;;;;;;5.27;1.90;;;22.10;47.50;;;;;;5161740;28;20089;-48
2021/12/08 02:24:14;;;;;;;4.85;2.10;;;22.00;47.40;;;;;;5160496;28;20065;-52
2021/12/08 02:26:50;;;;;;;5.40;1.80;;;22.00;47.40;;;;;;5154020;28;20049;-53
2021/12/08 02:29:42;;;;;;;5.78;1.92;;;22.00;47.40;;;;;;5154957;28;20049;-54
2021/12/08 02:49:07;;;;;;;2.70;2.05;;;22.00;47.30;;;;;;5157379;28;20049;-50
2021/12/08 02:51:41;;;;;;;3.95;2.05;;;22.00;47.20;;;;;;5165614;28;20060;-51
2021/12/08 02:54:14;;;;;;;7.13;1.98;;;22.00;47.20;;;;;;5165859;28;20401;-54
2021/12/08 02:56:48;;;;;;;2.67;1.80;;;22.00;47.10;;;;;;5163296;28;20464;-50
2021/12/08 02:59:23;;;;;;;5.57;2.10;;;22.00;47.10;;;;;;5147074;28;20323;-51
2021/12/08 03:01:55;;;;;;;3.80;2.00;;;22.00;47.00;;;;;;5166868;28;20516;-51
2021/12/08 03:04:28;;;;;;;6.30;2.45;;;22.00;46.90;;;;;;5162873;28;20053;-51
2021/12/08 03:07:01;;;;;;;2.78;1.70;;;22.00;46.90;;;;;;5157025;28;20549;-50
2021/12/08 03:09:34;;;;;;;3.17;1.52;;;21.90;46.90;;;;;;5155388;28;20505;-53
2021/12/08 03:12:07;;;;;;;3.10;1.90;;;22.00;47.00;;;;;;5146833;28;20077;-52
2021/12/08 03:14:40;;;;;;;4.40;1.95;;;22.00;46.90;;;;;;5153895;28;20038;-51
2021/12/08 03:17:15;;;;;;;2.85;1.77;;;21.90;46.80;;;;;;5152377;28;20525;-49
2021/12/08 03:19:47;;;;;;;2.15;1.55;;;21.90;46.80;;;;;;5151466;28;20203;-50
2021/12/08 03:22:20;;;;;;;4.53;1.98;;;21.90;46.70;;;;;;5152225;28;20041;-53
2021/12/08 03:24:53;;;;;;;3.05;1.65;;;21.90;46.80;;;;;;5152431;28;20041;-52
2021/12/08 03:27:33;;;;;;;2.28;1.70;;;21.90;46.80;;;;;;5147818;28;20065;-50
2021/12/08 03:30:15;;;;;;;2.30;1.88;;;21.90;46.80;;;;;;5153083;28;20049;-52
2021/12/08 03:32:47;;;;;;;2.30;1.70;;;22.00;46.80;;;;;;5155886;28;20053;-54
2021/12/08 03:35:20;;;;;;;4.07;1.92;;;22.00;46.70;;;;;;5152040;28;20048;-51
2021/12/08 03:37:53;;;;;;;2.05;1.50;;;21.90;47.40;;;;;;5156785;28;20055;-51
2021/12/08 03:40:26;;;;;;;3.73;2.20;;;21.90;46.60;;;;;;5155295;28;20058;-52
2021/12/08 03:42:59;;;;;;;6.78;2.00;;;21.90;46.70;;;;;;5148459;28;20057;-50
2021/12/08 03:45:39;;;;;;;2.10;1.63;;;21.90;46.70;;;;;;5160424;28;20042;-49
2021/12/08 03:48:27;;;;;;;2.67;1.73;;;21.90;46.70;;;;;;5140388;28;20038;-51
2021/12/08 03:50:59;;;;;;;3.47;1.88;;;21.90;46.70;;;;;;5151777;28;20373;-47
2021/12/08 03:53:32;;;;;;;6.18;2.10;;;21.90;46.70;;;;;;5155881;28;20046;-53
2021/12/08 03:56:05;;;;;;;2.45;1.80;;;21.90;46.80;;;;;;5151753;28;20054;-52
2021/12/08 03:58:38;;;;;;;3.43;2.00;;;21.90;46.70;;;;;;5152733;28;20050;-48
2021/12/08 04:01:11;;;;;;;4.17;1.93;;;21.90;46.90;;;;;;5146205;28;21411;-48
2021/12/08 04:03:49;;;;;;;2.37;1.53;;;21.90;47.00;;;;;;5164088;23;20045;-79
2021/12/08 04:06:29;;;;;;;4.18;1.80;;;21.90;47.00;;;;;;5166146;28;20033;-80
2021/12/08 04:09:06;;;;;;;4.85;1.92;;;21.90;47.10;;;;;;5175873;28;20048;-82
2021/12/08 04:11:38;;;;;;;3.08;1.80;;;21.90;47.20;;;;;;5174011;28;20048;-83
2021/12/08 04:14:16;;;;;;;5.47;1.80;;;21.90;47.30;;;;;;5160219;28;20040;-81
2021/12/08 04:16:58;;;;;;;2.42;1.67;;;21.90;47.30;;;;;;5190226;28;25885;-82
2021/12/08 04:19:31;;;;;;;3.17;1.58;;;21.90;47.40;;;;;;5196990;28;20049;-83
2021/12/08 04:22:07;;;;;;;;;;;21.90;47.50;;;;;;5186348;28;20060;-81
2021/12/08 04:24:41;;;;;;;2.53;1.40;;;21.90;47.70;;;;;;5194158;28;20473;-79
2021/12/08 04:27:18;;;;;;;2.75;1.70;;;21.90;47.70;;;;;;5177159;28;20045;-79
2021/12/08 04:29:51;;;;;;;2.08;1.40;;;21.90;47.80;;;;;;5194637;28;20052;-81
2021/12/08 04:32:27;;;;;;;3.05;1.67;;;21.90;47.80;;;;;;5202222;28;20998;-82
2021/12/08 04:35:04;;;;;;;2.78;1.65;;;21.90;47.90;;;;;;5179641;28;20411;-82
2021/12/08 04:37:41;;;;;;;2.65;1.50;;;21.90;48.00;;;;;;5194842;28;20045;-83
2021/12/08 04:43:16;;;;;;;7.15;1.70;;;21.90;48.10;;;;;;5187462;28;20056;-81
2021/12/08 04:51:55;;;;;;;2.97;1.55;;;21.90;48.20;;;;;;5186773;28;20041;-83
2021/12/08 05:08:56;;;;;;;3.55;2.33;;;21.90;48.60;;;;;;5179412;28;20048;-81
2021/12/08 05:11:33;;;;;;;4.25;1.60;;;21.90;48.60;;;;;;5176234;28;20056;-81
2021/12/08 05:14:09;;;;;;;5.60;1.48;;;21.90;48.70;;;;;;5181526;28;20041;-81
2021/12/08 05:16:45;;;;;;;4.53;1.77;;;21.80;48.70;;;;;;5164168;28;20053;-81
2021/12/08 05:19:25;;;;;;;2.97;1.83;;;21.90;48.80;;;;;;5176302;28;20045;-81
2021/12/08 05:22:07;;;;;;;4.80;1.80;;;21.90;48.80;;;;;;5176768;28;20044;-81
2021/12/08 05:24:44;;;;;;;5.57;1.70;;;21.90;48.80;;;;;;5179819;28;20067;-81
2021/12/08 05:27:27;;;;;;;4.25;1.63;;;21.90;48.90;;;;;;5180231;28;20441;-81
2021/12/08 05:30:13;;;;;;;4.70;1.80;;;21.90;48.90;;;;;;5164203;28;20512;-81
2021/12/08 05:32:46;;;;;;;5.50;1.92;;;21.90;48.80;;;;;;5180517;28;20056;-82
2021/12/08 05:35:21;;;;;;;4.78;1.92;;;21.90;48.90;;;;;;5186563;28;20514;-81
2021/12/08 05:37:55;;;;;;;10.93;2.13;;;21.90;49.00;;;;;;5180525;28;20059;-81
2021/12/08 05:40:38;;;;;;;3.55;1.60;;;21.90;49.00;;;;;;5180767;28;20498;-82
2021/12/08 05:43:11;;;;;;;7.57;2.03;;;21.90;48.90;;;;;;5178569;28;20052;-81
2021/12/08 05:45:45;;;;;;;6.78;1.80;;;21.90;49.00;;;;;;5179519;28;20040;-81
2021/12/08 05:48:19;;;;;;;4.53;2.10;;;21.90;49.00;;;;;;5181928;28;20474;-81
2021/12/08 05:50:57;;;;;;;6.50;1.77;;;21.90;49.00;;;;;;5174603;28;20056;-81
2021/12/08 05:53:31;;;;;;;5.85;1.85;;;22.00;49.00;;;;;;5184067;28;20482;-81
2021/12/08 05:56:05;;;;;;;6.28;1.95;;;22.00;49.00;;;;;;5175254;28;20060;-82
2021/12/08 05:58:39;;;;;;;5.95;2.03;;;22.00;49.10;;;;;;5178328;28;20048;-82
2021/12/08 06:01:17;;;;;;;6.43;2.38;;;22.10;49.10;;;;;;5195232;28;20064;-83
2021/12/08 06:03:51;;;;;;;8.15;2.00;;;22.00;49.00;;;;;;5185571;28;20486;-82
2021/12/08 06:06:24;;;;;;;16.20;2.40;;;22.10;49.20;;;;;;5179359;28;21344;-82
2021/12/08 06:08:57;;;;;;;14.18;3.08;;;22.10;49.20;;;;;;5163801;28;20092;-82
2021/12/08 06:11:30;;;;;;;12.23;2.00;;;22.10;49.20;;;;;;5188400;28;20049;-82
2021/12/08 06:14:07;;;;;;;11.98;2.33;;;22.10;49.10;;;;;;5171366;28;20303;-83
2021/12/08 06:16:41;;;;;;;10.93;2.67;;;22.10;48.90;;;;;;5186712;28;20056;-82
2021/12/08 06:19:16;;;;;;;9.75;2.45;;;22.10;48.80;;;;;;5185759;28;20064;-82
2021/12/08 06:21:50;;;;;;;17.02;2.85;;;22.10;48.80;;;;;;5197376;28;20057;-82
2021/12/08 06:24:22;;;;;;;14.02;3.03;;;22.10;48.70;;;;;;5178892;28;20488;-81
2021/12/08 06:26:55;;;;;;;8.77;2.17;;;22.10;48.70;;;;;;5176607;28;20072;-82
2021/12/08 06:29:28;;;;;;;8.23;2.30;;;22.10;48.60;;;;;;5191368;28;20474;-81
2021/12/08 06:32:04;;;;;;;12.05;3.13;;;22.10;48.60;;;;;;5204455;28;20045;-82
2021/12/08 06:34:40;;;;;;;11.40;2.53;;;22.20;48.60;;;;;;5195556;28;20862;-82
2021/12/08 06:37:22;;;;;;;10.82;2.35;;;22.20;48.50;;;;;;5186526;28;21322;-82
2021/12/08 06:40:08;;;;;;;7.90;2.38;;;22.20;48.40;;;;;;5190218;28;20056;-82
2021/12/08 06:42:45;;;;;;;6.82;2.55;;;22.20;48.40;;;;;;5189807;28;20382;-82
2021/12/08 06:45:24;;;;;;;11.20;2.78;;;22.10;48.40;;;;;;5211642;28;20068;-82
2021/12/08 06:47:59;;;;;;;6.82;2.20;;;22.20;48.40;;;;;;5214273;28;20052;-82
2021/12/08 06:50:36;;;;;;;5.22;2.33;;;22.20;48.40;;;;;;5208751;28;20048;-82
2021/12/08 06:53:09;;;;;;;10.10;2.53;;;22.20;48.30;;;;;;5197720;28;20505;-82
2021/12/08 06:55:48;;;;;;;5.03;1.60;;;22.20;48.30;;;;;;5215408;28;20398;-82
2021/12/08 06:58:28;;;;;;;7.65;2.42;;;22.20;48.30;;;;;;5218000;28;20601;-82
2021/12/08 07:01:50;;;;;;;8.48;2.00;;;22.20;48.30;;;;;;5214890;28;20048;-82
2021/12/08 07:07:02;;;;;;;9.35;1.92;;;22.20;48.20;;;;;;5215285;28;20049;-82
2021/12/08 07:09:41;;;;;;;6.13;2.15;;;22.20;48.20;;;;;;5198627;28;20410;-81
2021/12/08 07:12:21;;;;;;;5.15;2.22;;;22.20;48.20;;;;;;5183656;28;20052;-82
2021/12/08 07:15:00;;;;;;;5.18;1.73;;;22.20;48.10;;;;;;5215887;28;20037;-82
2021/12/08 07:17:36;;;;;;;3.10;1.85;;;22.20;48.20;;;;;;5214614;28;20045;-82
2021/12/08 07:22:50;;;;;;;5.47;2.17;;;22.20;48.10;;;;;;5200782;28;20048;-83
2021/12/08 07:25:26;;;;;;;5.20;2.00;;;22.20;48.10;;;;;;5217233;28;20068;-81
2021/12/08 07:27:59;;;;;;;5.13;1.90;;;22.20;48.10;;;;;;5199416;28;20068;-83
2021/12/08 07:30:43;;;;;;;5.80;2.10;;;22.20;48.10;;;;;;5196509;28;20052;-82
2021/12/08 07:33:15;;;;;;;3.25;1.55;;;22.20;48.10;;;;;;5224595;28;20049;-82
2021/12/08 07:35:53;;;;;;;5.13;1.88;;;22.20;48.10;;;;;;5212141;28;20495;-82
2021/12/08 07:38:28;;;;;;;5.55;2.00;;;22.20;48.10;;;;;;5217421;28;20065;-82
2021/12/08 07:41:10;;;;;;;2.92;1.90;;;22.20;48.00;;;;;;5213792;28;20053;-82
2021/12/08 07:43:51;;;;;;;2.33;1.83;;;22.20;48.00;;;;;;5217424;28;20048;-82
2021/12/08 07:46:32;;;;;;;8.02;2.33;;;22.20;48.00;;;;;;5189689;28;20067;-82
2021/12/08 07:49:18;;;;;;;4.20;1.73;;;22.20;48.00;;;;;;5214316;28;20053;-82
2021/12/08 07:52:16;;;;;;;3.08;1.98;;;22.20;48.00;;;;;;5205287;28;20041;-82
2021/12/08 07:54:50;;;;;;;5.22;2.20;;;22.20;48.60;;;;;;5215085;28;20032;-82
2021/12/08 07:57:27;;;;;;;3.10;1.80;;;22.20;48.00;;;;;;5215256;28;20038;-82
2021/12/08 08:00:11;;;;;;;4.32;1.90;;;22.20;48.00;;;;;;5217580;28;20457;-82
2021/12/08 08:02:47;;;;;;;4.72;2.10;;;22.20;47.90;;;;;;5212288;28;20047;-82
2021/12/08 08:05:27;;;;;;;3.15;1.90;;;22.30;48.00;;;;;;5213439;28;20479;-83
2021/12/08 08:08:04;;;;;;;4.13;1.70;;;22.20;47.90;;;;;;5215881;28;20049;-82
2021/12/08 08:10:42;;;;;;;3.65;1.80;;;22.20;47.90;;;;;;5215691;28;20052;-82
2021/12/08 08:13:19;;;;;;;7.07;1.75;;;22.30;48.00;;;;;;5214137;28;20055;-83
2021/12/08 08:15:57;;;;;;;4.15;1.52;;;22.20;47.90;;;;;;5212616;28;20389;-83
2021/12/08 08:18:30;;;;;;;6.82;2.10;;;22.20;47.90;;;;;;5197319;28;20062;-82
2021/12/08 08:21:08;;;;;;;4.60;2.00;;;22.20;47.90;;;;;;5216497;28;20057;-83
2021/12/08 08:23:42;;;;;;;3.08;1.92;;;22.20;47.90;;;;;;5195941;28;20041;-83
2021/12/08 08:26:15;;;;;;;;;;;22.30;47.90;;;;;;5214972;28;20048;-82
2021/12/08 08:28:50;;;;;;;8.20;2.20;;;22.20;47.90;;;;;;5215694;28;20373;-82
2021/12/08 08:31:29;;;;;;;3.05;1.73;;;22.20;47.90;;;;;;5214991;28;20037;-83
2021/12/08 08:34:03;;;;;;;4.55;1.95;;;22.20;48.00;;;;;;5217601;28;20037;-83
2021/12/08 08:36:39;;;;;;;3.88;2.38;;;22.20;47.90;;;;;;5214431;28;20414;-83
2021/12/08 08:39:20;;;;;;;5.40;2.60;;;22.20;47.90;;;;;;5194067;28;20056;-82
2021/12/08 08:41:55;;;;;;;3.90;2.15;;;22.20;47.90;;;;;;5215715;28;20044;-82
2021/12/08 08:45:04;;;;;;;3.80;1.88;;;22.20;47.90;;;;;;5183427;28;20052;-82
2021/12/08 08:47:42;;;;;;;4.65;1.92;;;22.20;47.80;;;;;;5196595;28;20048;-83
2021/12/08 08:50:23;;;;;;;3.50;1.88;;;22.20;47.80;;;;;;5196815;28;20056;-82
2021/12/08 08:52:57;;;;;;;2.90;1.55;;;22.30;47.90;;;;;;5214653;28;20051;-83
2021/12/08 08:55:55;;;;;;;6.13;2.53;;;22.20;47.80;;;;;;5198400;28;20041;-83
2021/12/08 08:58:30;;;;;;;4.65;2.08;;;22.30;47.90;;;;;;5196391;28;20076;-83
2021/12/08 09:01:16;;;;;;;3.08;1.80;;;22.30;47.90;;;;;;5198936;28;20065;-83
2021/12/08 09:04:01;;;;;;;4.53;2.13;;;22.30;47.90;;;;;;5190788;28;20048;-82
2021/12/08 09:06:38;;;;;;;2.67;1.55;;;22.20;47.80;;;;;;5213137;28;20068;-83
2021/12/08 09:09:23;;;;;;;3.20;1.65;;;22.30;48.20;;;;;;5211374;28;20422;-82
2021/12/08 09:12:01;;;;;;;3.38;2.00;;;22.30;47.80;;;;;;5215783;28;20045;-83
2021/12/08 09:14:55;;;;;;;3.83;1.63;;;22.30;47.90;;;;;;5214306;28;20048;-83
2021/12/08 09:17:44;;;;;;;2.50;1.63;;;22.30;47.80;;;;;;5216832;28;20042;-83
2021/12/08 09:20:42;;;;;;;3.53;1.85;;;22.30;47.80;;;;;;5214352;28;20064;-83
2021/12/08 09:23:24;;;;;;;3.95;2.15;;;22.30;47.80;;;;;;5214642;28;20045;-83
2021/12/08 09:26:03;;;;;;;2.40;1.90;;;22.30;47.90;;;;;;5213447;28;20037;-83
2021/12/08 09:28:45;;;;;;;4.32;1.80;;;22.30;47.80;;;;;;5213570;28;20045;-83
2021/12/08 09:31:25;;;;;;;2.15;1.70;;;22.30;47.80;;;;;;5212973;28;20033;-81
2021/12/08 09:34:06;;;;;;;1.80;1.48;;;22.30;47.80;;;;;;5214265;28;20033;-81
2021/12/08 09:36:46;;;;;;;2.25;1.45;;;22.30;47.80;;;;;;5211332;28;20053;-82
2021/12/08 09:39:29;;;;;;;3.45;1.92;;;22.30;47.80;;;;;;5211180;28;20048;-81
2021/12/08 09:42:26;;;;;;;2.78;1.83;;;22.30;47.70;;;;;;5214039;28;20052;-82
2021/12/08 09:45:07;;;;;;;2.47;1.58;;;22.30;47.70;;;;;;5196039;28;20071;-81
2021/12/08 09:47:40;;;;;;;2.00;1.45;;;22.30;47.80;;;;;;5213959;28;20057;-82
2021/12/08 09:50:15;;;;;;;4.03;1.90;;;22.30;47.70;;;;;;5194910;28;20052;-82
2021/12/08 09:52:48;;;;;;;3.38;1.80;;;22.30;47.70;;;;;;5211987;28;20052;-82
2021/12/08 09:55:21;;;;;;;2.78;1.75;;;22.30;47.70;;;;;;5216489;28;20052;-82
2021/12/08 09:57:53;;;;;;;2.88;1.50;;;22.30;47.80;;;;;;5216150;28;20041;-82
2021/12/08 10:00:37;;;;;;;2.28;1.55;;;22.30;48.40;;;;;;5214842;28;20121;-82
2021/12/08 10:03:13;;;;;;;3.05;2.00;;;22.30;47.70;;;;;;5195798;28;20064;-82
2021/12/08 10:05:45;;;;;;;1.75;1.38;;;22.30;47.70;;;;;;5206881;28;20501;-82
2021/12/08 10:08:18;;;;;;;3.03;1.55;;;22.30;47.70;;;;;;5211420;28;20049;-80
2021/12/08 10:10:51;;;;;;;2.20;1.70;;;22.30;47.80;;;;;;5213136;28;20135;-82
2021/12/08 10:13:24;;;;;;;2.22;1.52;;;22.30;47.70;;;;;;5210314;28;20049;-82
2021/12/08 10:15:56;;;;;;;2.33;1.87;;;22.30;47.70;;;;;;5218162;28;20055;-82
2021/12/08 10:18:29;;;;;;;1.70;1.35;;;22.30;47.70;;;;;;5217344;28;20486;-82
2021/12/08 10:21:01;;;;;;;3.58;1.58;;;22.30;47.70;;;;;;5216851;28;20041;-81
2021/12/08 10:23:37;;;;;;;3.07;2.00;;;22.30;47.70;;;;;;5200523;28;20331;-81
2021/12/08 10:26:12;;;;;;;2.97;1.80;;;22.30;47.70;;;;;;5176705;28;20291;-81
2021/12/08 10:28:52;;;;;;;2.70;1.90;;;22.30;47.70;;;;;;5207601;28;20052;-81
2021/12/08 10:31:32;;;;;;;2.83;1.90;;;22.30;47.70;;;;;;5216910;28;20045;-82
2021/12/08 10:36:57;;;;;;;3.85;1.50;;;22.30;48.30;;;;;;5216430;28;20469;-81
2021/12/08 10:39:37;;;;;;;1.40;1.30;;;22.30;47.80;;;;;;5218427;28;20045;-81
2021/12/08 10:42:17;;;;;;;2.60;1.50;;;22.30;47.70;;;;;;5219818;28;20052;-82
2021/12/08 10:45:01;;;;;;;5.97;2.08;;;22.30;47.70;;;;;;5216892;28;20041;-81
2021/12/08 10:47:36;;;;;;;;;;;22.30;47.70;;;;;;5220089;28;20632;-81
2021/12/08 10:56:06;;;;;;;2.20;1.48;;;22.30;47.80;;;;;;5218424;28;20498;-82
2021/12/08 10:58:50;;;;;;;2.65;1.55;;;22.30;47.80;;;;;;5218365;28;20041;-81
2021/12/08 11:01:25;;;;;;;2.47;1.40;;;22.30;47.80;;;;;;5215609;28;20045;-81
2021/12/08 11:04:01;;;;;;;2.38;1.60;;;22.30;47.80;;;;;;5216905;28;20053;-81
2021/12/08 11:06:36;;;;;;;2.65;1.77;;;22.30;47.80;;;;;;5198071;28;20045;-82
2021/12/08 11:09:40;;;;;;;3.25;1.60;;;22.30;47.80;;;;;;5217772;28;20321;-81
2021/12/08 11:12:20;;;;;;;1.92;1.55;;;22.30;47.70;;;;;;5215539;28;20052;-81
2021/12/08 11:14:53;;;;;;;2.95;1.98;;;22.30;47.80;;;;;;5218075;28;20057;-81
2021/12/08 11:17:28;;;;;;;2.03;1.60;;;22.30;47.80;;;;;;5215730;28;20037;-82
2021/12/08 11:20:29;;;;;;;2.83;1.75;;;22.30;47.80;;;;;;5197214;28;20434;-81
2021/12/08 11:23:04;;;;;;;3.28;1.90;;;22.30;47.70;;;;;;5214847;28;20045;-81
2021/12/08 11:25:46;;;;;;;2.25;1.52;;;22.30;47.80;;;;;;5214775;28;20490;-81
2021/12/08 11:28:33;;;;;;;2.00;1.50;;;22.30;47.80;;;;;;5216960;28;20056;-81
2021/12/08 11:31:12;;;;;;;2.33;1.80;;;22.30;47.80;;;;;;5198741;28;20041;-81
2021/12/08 11:33:59;;;;;;;2.72;1.40;;;22.30;47.80;;;;;;5214229;28;20418;-81
2021/12/08 11:36:35;;;;;;;2.33;1.70;;;22.30;47.80;;;;;;5216209;28;20354;-81
2021/12/08 11:39:16;;;;;;;2.05;1.35;;;22.30;47.80;;;;;;5198904;28;21002;-81
2021/12/08 11:41:55;;;;;;;2.25;1.55;;;22.30;47.70;;;;;;5214762;28;20040;-81
2021/12/08 11:44:30;;;;;;;2.22;1.40;;;22.30;47.70;;;;;;5214839;28;20064;-82
2021/12/08 11:47:11;;;;;;;2.65;1.50;;;22.30;47.70;;;;;;5214616;28;20057;-81
2021/12/08 11:49:47;;;;;;;2.55;1.50;;;22.30;47.70;;;;;;5213692;28;20060;-81
2021/12/08 11:52:23;;;;;;;2.80;1.50;;;22.30;47.80;;;;;;5213654;28;20037;-81
2021/12/08 11:55:26;;;;;;;3.50;1.63;;;22.30;47.80;;;;;;5213105;28;20042;-81
2021/12/08 11:58:01;;;;;;;1.70;1.40;;;22.30;47.70;;;;;;5202416;28;20045;-81
2021/12/08 12:00:37;;;;;;;1.70;1.30;;;22.30;47.70;;;;;;5215115;28;20513;-81
2021/12/08 12:03:14;;;;;;;1.92;1.63;;;22.30;47.70;;;;;;5212461;28;20059;-81
2021/12/08 12:05:48;;;;;;;2.10;1.38;;;22.30;47.70;;;;;;5214774;28;20296;-81
2021/12/08 12:08:25;;;;;;;2.50;1.80;;;22.30;47.70;;;;;;5197667;28;20057;-81
2021/12/08 12:11:01;;;;;;;1.88;1.60;;;22.30;47.70;;;;;;5214569;28;20041;-80
2021/12/08 12:13:34;;;;;;;2.35;1.55;;;22.30;48.40;;;;;;5196098;28;20398;-81
2021/12/08 12:16:07;;;;;;;2.70;1.77;;;22.30;47.70;;;;;;5191199;28;20078;-81
2021/12/08 12:18:39;;;;;;;2.93;1.80;;;22.30;47.70;;;;;;5197322;28;21114;-82
2021/12/08 12:21:25;;;;;;;1.65;1.48;;;22.30;47.70;;;;;;5178080;28;20611;-80
2021/12/08 12:24:18;;;;;;;2.15;1.55;;;22.30;47.70;;;;;;5198950;28;21491;-80
2021/12/08 12:27:02;;;;;;;1.95;1.52;;;22.30;47.70;;;;;;5196906;28;20041;-81
2021/12/08 12:29:53;;;;;;;2.70;1.60;;;22.30;47.70;;;;;;5205635;28;20052;-79
2021/12/08 12:32:37;;;;;;;1.40;1.20;;;22.30;47.70;;;;;;5203224;28;20041;-80
2021/12/08 12:35:12;;;;;;;1.40;1.27;;;22.30;47.70;;;;;;5207919;28;20049;-80
2021/12/08 12:37:45;;;;;;;2.47;1.40;;;22.30;47.70;;;;;;5204479;28;20045;-80
2021/12/08 12:40:31;;;;;;;3.08;2.08;;;22.30;47.70;;;;;;5191083;28;20041;-79
2021/12/08 12:43:04;;;;;;;3.33;1.45;;;22.30;47.70;;;;;;5188163;28;20064;-80
2021/12/08 12:45:40;;;;;;;6.25;1.50;;;22.30;47.70;;;;;;5175697;28;20049;-80
2021/12/08 12:48:16;;;;;;;3.05;1.50;;;22.30;47.70;;;;;;5178311;28;20873;-80
2021/12/08 12:50:52;;;;;;;5.30;1.77;;;22.30;47.80;;;;;;5181096;28;20071;-79
2021/12/08 12:53:46;;;;;;;2.63;1.77;;;22.30;47.90;;;;;;5187896;28;20064;-80
2021/12/08 12:56:34;;;;;;;2.78;1.55;;;22.40;48.00;;;;;;5203247;28;20052;-80
2021/12/08 12:59:17;;;;;;;5.25;1.88;;;22.40;48.10;;;;;;5198578;28;20045;-80
2021/12/08 13:02:10;;;;;;;7.95;1.85;;;22.40;48.30;;;;;;5203420;28;20047;-80
2021/12/08 13:05:09;;;;;;;4.22;2.00;;;22.40;48.20;;;;;;5208855;28;20124;-80
2021/12/08 13:07:59;;;;;;;2.63;1.50;;;22.40;48.30;;;;;;5196414;28;20049;-79
2021/12/08 13:10:38;;;;;;;5.47;1.60;;;22.40;48.40;;;;;;5205704;28;20045;-79
2021/12/08 13:13:13;;;;;;;5.65;1.52;;;22.40;48.60;;;;;;5195436;28;20398;-80
2021/12/08 13:15:46;;;;;;;5.70;2.00;;;22.40;48.60;;;;;;5206807;28;20048;-80
2021/12/08 13:18:19;;;;;;;;;;;22.40;49.30;;;;;;5181176;28;20525;-80
2021/12/08 13:20:58;;;;;;;3.97;1.50;;;22.30;48.60;;;;;;5205687;28;19924;-80
2021/12/08 13:23:31;;;;;;;4.72;1.73;;;22.40;48.60;;;;;;5211733;28;20045;-80
2021/12/08 13:26:12;;;;;;;4.78;1.60;;;22.40;48.50;;;;;;5205283;28;20049;-80
2021/12/08 13:31:26;;;;;;;5.05;1.70;;;22.40;48.60;;;;;;5195766;28;20113;-79
2021/12/08 13:34:06;;;;;;;4.38;2.15;;;22.40;48.70;;;;;;5184080;28;20056;-79
2021/12/08 13:36:45;;;;;;;5.78;1.58;;;22.40;48.60;;;;;;5183120;28;20045;-79
2021/12/08 13:39:30;;;;;;;5.90;1.70;;;22.40;48.60;;;;;;5182188;28;20049;-79
2021/12/08 13:42:29;;;;;;;4.47;1.80;;;22.40;48.70;;;;;;5163745;28;20041;-78
2021/12/08 13:45:16;;;;;;;9.40;2.00;;;22.40;48.90;;;;;;5158028;28;20056;-84
2021/12/08 13:47:49;;;;;;;6.47;2.60;;;22.40;49.20;;;;;;5184227;28;20049;-81
2021/12/08 13:50:24;;;;;;;9.10;2.00;;;22.30;49.10;;;;;;5187861;28;20049;-81
2021/12/08 13:53:15;;;;;;;9.55;1.80;;;22.40;49.20;;;;;;5192880;28;20049;-79
2021/12/08 13:55:55;;;;;;;7.10;1.90;;;22.40;49.30;;;;;;5186487;28;20060;-79
2021/12/08 13:58:35;;;;;;;10.10;1.83;;;22.40;49.30;;;;;;5193950;28;20381;-80
2021/12/08 14:01:35;;;;;;;5.65;1.85;;;22.40;49.40;;;;;;5159202;28;20048;-82
2021/12/08 14:04:15;;;;;;;8.27;1.77;;;22.40;49.40;;;;;;5163636;28;20056;-84
2021/12/08 14:06:48;;;;;;;7.63;2.05;;;22.40;49.50;;;;;;5179645;28;20049;-80
2021/12/08 14:09:20;;;;;;;8.43;2.53;;;22.40;49.40;;;;;;5189303;28;20479;-84
2021/12/08 14:11:52;;;;;;;8.63;2.13;;;22.40;49.30;;;;;;5182815;28;20045;-80
2021/12/08 14:14:25;;;;;;;14.60;1.98;;;22.50;49.30;;;;;;5185785;28;21654;-80
2021/12/08 14:16:57;;;;;;;8.00;2.45;;;22.40;49.10;;;;;;5167492;28;20048;-84
2021/12/08 14:19:38;;;;;;;7.93;2.42;;;22.40;49.20;;;;;;5173252;28;20072;-78
2021/12/08 14:22:11;;;;;;;9.15;2.35;;;22.40;49.20;;;;;;5171389;28;20518;-82
2021/12/08 14:24:43;;;;;;;9.73;1.70;;;22.50;49.20;;;;;;5178229;28;20041;-82
2021/12/08 14:27:16;;;;;;;9.20;2.92;;;22.50;49.30;;;;;;5169948;28;20836;-80
2021/12/08 14:29:48;;;;;;;8.50;1.73;;;22.50;49.30;;;;;;5185818;28;20497;-83
2021/12/08 14:32:21;;;;;;;7.07;2.00;;;22.60;49.50;;;;;;5189557;28;20040;-81
2021/12/08 14:34:53;;;;;;;8.30;1.88;;;22.60;49.30;;;;;;5175243;28;20055;-82
2021/12/08 14:37:27;;;;;;;10.83;1.80;;;22.60;49.30;;;;;;5179318;28;20037;-82
2021/12/08 14:40:03;;;;;;;7.90;2.13;;;22.60;49.30;;;;;;5188557;28;20234;-81
2021/12/08 14:42:35;;;;;;;6.40;1.95;;;22.60;49.40;;;;;;5149055;28;20075;-81